Latest Weather Observations for Tamworth Airport

IDN60801

Issued at 2:12 pm EST Saturday 25 May 2024 (issued every 10 minutes, with the page automatically refreshed every 10 minutes)

About weather observations | Map of weather stations | Latest weather observations for NSW | Other Formats
Station Details ID: 055325 Name: TAMWORTH AIRPORT AWS Lat: -31.07 Lon: 150.84 Height: 394.9 m
Data from the previous 72 hours. | See also: Recent months at Tamworth Airport
Date/Time
EST
Temp
°C
App
Temp
°C
Dew
Point
°C
Rel
Hum
%
Delta-T
°C
Wind Press
QNH
hPa
Press
MSL
hPa
Rain since
9am
mm
Dir  Spd
km/h
Gust
km/h
Spd
kts
Gust
kts
25/02:00pm 20.4 18.9 9.0 48 6.1 NW 7 13 4 7 1024.8 1024.5 0.0
25/01:30pm 20.0 18.2 9.3 50 5.8 NW 9 15 5 8 1025.2 1024.9 0.0
25/01:00pm 19.4 17.6 9.6 53 5.3 WNW 9 15 5 8 1025.6 1025.4 0.0
25/12:30pm 18.6 16.7 9.1 54 5.1 NNW 9 13 5 7 1026.0 1025.8 0.0
25/12:00pm 18.9 18.7 9.1 53 5.2 CALM 0 0 0 0 1026.5 1026.2 0.0
25/11:30am 18.5 17.3 9.6 56 4.8 NNW 6 7 3 4 1027.0 1026.7 0.0
25/11:00am 16.4 16.0 9.6 64 3.6 NE 2 7 1 4 1027.5 1027.2 0.0
25/10:30am 15.6 14.6 10.2 70 2.9 NNE 6 7 3 4 1027.9 1027.7 0.0
25/10:00am 14.5 14.6 10.3 76 2.2 CALM 0 9 0 5 1028.1 1027.9 0.0
25/09:30am 12.8 12.7 9.6 81 1.7 CALM 0 0 0 0 1028.0 1027.8 0.0
25/09:00am 10.6 10.3 8.7 88 0.9 CALM 0 4 0 2 1027.9 1027.7 0.0
25/08:30am 8.9 8.5 8.1 95 0.4 CALM 0 0 0 0 1027.8 1027.6 0.0
25/08:00am 7.2 6.5 6.8 97 0.2 CALM 0 0 0 0 1027.8 1027.6 0.0
25/07:30am 5.9 3.7 5.3 96 0.3 W 6 7 3 4 1027.4 1027.1 0.0
25/07:00am 5.4 3.0 4.4 93 0.4 NNE 6 11 3 6 1027.0 1026.7 0.0
25/06:30am 6.3 2.9 5.9 97 0.2 S 13 15 7 8 1026.8 1026.5 0.0
25/06:00am 4.6 1.9 3.9 95 0.3 WSW 7 9 4 5 1026.5 1026.2 0.0
25/05:30am 6.3 3.6 5.6 95 0.3 SSE 9 13 5 7 1026.2 1025.9 0.0
25/05:00am 5.7 2.8 4.8 94 0.4 SE 9 11 5 6 1025.8 1025.6 0.0
25/04:30am 5.8 3.9 4.9 94 0.4 NE 4 6 2 3 1025.8 1025.6 0.0
25/04:00am 5.8 2.9 4.4 91 0.6 NE 9 13 5 7 1025.8 1025.6 0.0
25/03:30am 7.5 5.8 6.0 90 0.7 SSW 4 7 2 4 1025.7 1025.5 0.0
25/03:00am 7.9 4.2 6.4 90 0.7 SSE 15 19 8 10 1025.5 1025.3 0.0
25/02:30am 6.9 2.7 5.7 92 0.5 SSE 17 20 9 11 1025.4 1025.1 0.0
25/02:00am 6.1 3.9 5.4 95 0.3 S 6 9 3 5 1025.8 1025.6 0.0
25/01:30am 6.5 2.9 5.1 91 0.6 SSE 13 17 7 9 1026.0 1025.8 0.0
25/01:00am 6.4 4.6 5.4 93 0.4 SSE 4 7 2 4 1026.4 1026.1 0.0
25/12:30am 7.0 3.5 5.3 89 0.8 SE 13 15 7 8 1026.6 1026.3 0.0
25/12:00am 7.4 4.6 5.2 86 1.0 ESE 9 11 5 6 1026.9 1026.6 0.0
 
Date/Time
EST
Temp
°C
App
Temp
°C
Dew
Point
°C
Rel
Hum
%
Delta-T
°C
Wind Press
QNH
hPa
Press
MSL
hPa
Rain since
9am
mm
Dir  Spd
km/h
Gust
km/h
Spd
kts
Gust
kts
24/11:30pm 7.5 4.3 5.0 84 1.1 SSE 11 13 6 7 1026.9 1026.6 0.0
24/11:00pm 6.7 5.2 5.0 89 0.8 SW 2 6 1 3 1027.0 1026.7 0.0
24/10:30pm 7.2 4.7 4.9 85 1.0 SSE 7 15 4 8 1026.9 1026.6 0.0
24/10:00pm 8.3 4.8 5.6 83 1.2 SSE 13 15 7 8 1026.7 1026.4 0.0
24/09:30pm 9.3 8.5 6.4 82 1.4 CALM 0 7 0 4 1026.7 1026.4 0.0
24/09:00pm 9.3 6.0 6.4 82 1.4 SSE 13 15 7 8 1026.5 1026.2 0.0
24/08:30pm 9.5 6.9 6.0 79 1.6 E 9 13 5 7 1026.0 1025.8 0.0
24/08:00pm 10.1 6.8 6.3 77 1.8 SSE 13 15 7 8 1026.2 1025.9 0.0
24/07:30pm 10.4 9.1 6.2 75 2.0 ESE 2 7 1 4 1026.0 1025.8 0.0
24/07:00pm 10.7 8.2 4.6 66 2.8 ESE 7 9 4 5 1025.9 1025.7 0.0
24/06:30pm 11.6 9.3 5.5 66 2.9 E 7 9 4 5 1025.6 1025.4 0.0
24/06:00pm 12.4 9.6 5.3 62 3.3 SSW 9 11 5 6 1025.3 1025.0 0.0
24/05:30pm 13.6 10.9 5.5 58 3.9 SW 9 9 5 5 1025.1 1024.8 0.0
24/05:00pm 14.8 11.8 6.1 56 4.2 SSW 11 11 6 6 1024.9 1024.6 0.0
24/04:30pm 16.2 13.6 6.3 52 4.9 SW 9 11 5 6 1024.7 1024.4 0.0
24/04:00pm 18.4 15.8 5.9 44 6.2 WSW 9 13 5 7 1024.8 1024.5 0.0
24/03:30pm 19.4 17.7 5.8 41 6.8 NW 4 7 2 4 1024.9 1024.6 0.0
24/03:00pm 19.3 17.5 5.4 40 6.9 N 4 6 2 3 1024.8 1024.5 0.0
24/02:30pm 19.2 16.7 4.9 39 7.1 NNW 7 9 4 5 1024.9 1024.6 0.0
24/02:00pm 19.8 17.1 5.5 39 7.1 NW 9 15 5 8 1025.2 1024.9 0.0
24/01:30pm 19.8 17.2 6.2 41 6.9 W 9 13 5 7 1025.4 1025.1 0.0
24/01:00pm 20.1 18.2 6.8 42 6.8 WNW 6 15 3 8 1025.6 1025.4 0.0
24/12:30pm 19.4 17.6 7.8 47 6.1 NNW 7 15 4 8 1026.2 1025.9 0.0
24/12:00pm 18.8 15.9 6.6 45 6.2 NW 11 13 6 7 1026.4 1026.1 0.0
24/11:30am 18.0 16.2 7.1 49 5.6 NNE 6 13 3 7 1026.8 1026.5 0.0
24/11:00am 17.2 15.4 7.8 54 4.8 NNE 7 11 4 6 1027.4 1027.1 0.0
24/10:30am 15.5 13.9 8.7 64 3.5 NNE 7 9 4 5 1027.7 1027.5 0.0
24/10:00am 14.6 13.5 8.3 66 3.2 NNW 4 7 2 4 1027.8 1027.6 0.0
24/09:30am 12.9 12.3 8.8 76 2.1 NE 2 6 1 3 1027.8 1027.6 0.0
24/09:00am 10.6 9.0 7.8 83 1.4 ESE 6 9 3 5 1027.8 1027.6 0.0
24/08:30am 8.3 5.9 7.1 92 0.6 SSE 9 11 5 6 1027.6 1027.3 0.0
24/08:00am 7.5 5.5 7.2 98 0.1 ESE 7 11 4 6 1027.5 1027.2 0.0
24/07:30am 4.3 1.8 4.0 98 0.1 SE 6 9 3 5 1027.2 1026.9 0.0
24/07:00am 4.3 1.3 4.0 98 0.1 SSE 9 11 5 6 1027.0 1026.7 0.0
24/06:30am 4.9 2.6 4.6 98 0.1 SSE 6 7 3 4 1026.6 1026.3 0.0
24/06:00am 3.8 1.1 3.5 98 0.1 SE 7 9 4 5 1026.4 1026.1 0.0
24/05:48am 3.5 0.7 3.2 98 0.1 SSE 7 7 4 4 1026.4 1026.1 0.0
24/05:30am 3.4 1.9 3.1 98 0.1 CALM 0 0 0 0 1026.4 1026.1 0.0
24/05:14am 2.8 1.2 2.4 97 0.2 CALM 0 0 0 0 1026.4 1026.1 0.0
24/05:09am 3.1 1.6 2.8 98 0.1 CALM 0 0 0 0 1026.4 1026.1 0.0
24/05:03am 3.3 1.8 3.0 98 0.1 CALM 0 0 0 0 1026.4 1026.1 0.0
24/05:00am 3.4 1.9 3.1 98 0.1 CALM 0 0 0 0 1026.4 1026.1 0.0
24/04:56am 3.6 2.2 3.3 98 0.1 CALM 0 0 0 0 1026.4 1026.1 0.0
24/04:52am 3.9 2.5 3.6 98 0.1 CALM 0 0 0 0 1026.4 1026.1 0.0
24/04:48am 4.3 3.0 4.0 98 0.1 CALM 0 0 0 0 1026.4 1026.1 0.0
24/04:35am 3.5 1.3 3.2 98 0.1 WSW 4 6 2 3 1026.2 1025.9 0.0
24/04:30am 3.3 0.6 2.9 97 0.2 WSW 6 7 3 4 1026.0 1025.8 0.0
24/04:23am 3.8 2.0 3.5 98 0.1 WSW 2 7 1 4 1026.0 1025.8 0.0
24/04:18am 4.0 2.6 3.7 98 0.1 CALM 0 0 0 0 1026.0 1025.8 0.0
24/04:12am 4.2 2.9 3.9 98 0.1 CALM 0 0 0 0 1026.2 1025.9 0.0
24/04:00am 3.7 2.3 3.3 97 0.2 CALM 0 0 0 0 1026.2 1025.9 0.0
24/03:46am 3.7 2.3 3.3 97 0.2 CALM 0 0 0 0 1026.0 1025.8 0.0
24/03:30am 3.9 1.7 3.3 96 0.3 NE 4 6 2 3 1026.0 1025.8 0.0
24/03:00am 3.6 0.3 2.6 93 0.4 NE 9 11 5 6 1025.9 1025.7 0.0
24/02:30am 5.0 2.5 4.6 97 0.2 SSW 7 11 4 6 1026.2 1025.9 0.0
24/02:00am 5.1 3.0 4.1 93 0.4 SE 4 9 2 5 1026.2 1025.9 0.0
24/01:30am 5.6 1.9 4.4 92 0.5 SSE 13 15 7 8 1026.4 1026.1 0.0
24/01:00am 6.0 3.1 4.8 92 0.5 SSE 9 11 5 6 1026.5 1026.2 0.0
24/12:30am 6.1 3.6 4.6 90 0.7 S 7 11 4 6 1026.4 1026.1 0.0
24/12:00am 5.3 4.1 4.6 95 0.3 CALM 0 0 0 0 1026.5 1026.2 0.0
 
Date/Time
EST
Temp
°C
App
Temp
°C
Dew
Point
°C
Rel
Hum
%
Delta-T
°C
Wind Press
QNH
hPa
Press
MSL
hPa
Rain since
9am
mm
Dir  Spd
km/h
Gust
km/h
Spd
kts
Gust
kts
23/11:30pm 4.5 0.4 2.2 85 0.9 S 13 17 7 9 1026.7 1026.4 0.0
23/11:00pm 4.8 2.5 3.0 88 0.8 SSE 4 7 2 4 1026.9 1026.6 0.0
23/10:30pm 6.3 5.0 4.3 87 0.9 CALM 0 7 0 4 1026.8 1026.5 0.0
23/10:00pm 7.0 4.5 4.0 81 1.3 ESE 6 7 3 4 1026.8 1026.5 0.0
23/09:30pm 8.8 7.5 4.0 72 2.1 CALM 0 0 0 0 1026.6 1026.3 0.0
23/09:00pm 8.7 7.5 4.5 75 1.9 CALM 0 0 0 0 1026.7 1026.4 0.0
23/08:30pm 6.0 4.4 2.3 77 1.5 CALM 0 0 0 0 1026.5 1026.2 0.0
23/08:00pm 9.3 6.7 4.1 70 2.3 E 7 9 4 5 1026.2 1025.9 0.0
23/07:30pm 10.9 8.8 3.9 62 3.2 WNW 4 7 2 4 1025.9 1025.7 0.0
23/07:00pm 8.7 6.0 2.7 66 2.6 WNW 6 7 3 4 1025.7 1025.5 0.0
23/06:30pm 12.9 11.6 4.3 56 4.0 CALM 0 0 0 0 1025.3 1025.0 0.0
23/06:00pm 13.2 11.8 3.8 53 4.3 CALM 0 0 0 0 1025.0 1024.7 0.0
23/05:30pm 14.8 13.5 4.2 49 5.0 CALM 0 0 0 0 1025.0 1024.7 0.0
23/05:00pm 17.4 15.3 3.7 40 6.5 NW 4 7 2 4 1024.7 1024.4 0.0
23/04:30pm 18.7 16.1 4.1 38 7.1 NW 7 9 4 5 1024.5 1024.2 0.0
23/04:00pm 18.1 14.9 3.2 37 7.0 NNW 9 11 5 6 1024.4 1024.1 0.0
23/03:30pm 19.5 16.2 4.4 37 7.4 N 11 15 6 8 1024.4 1024.1 0.0
23/03:00pm 20.1 17.5 3.3 33 8.1 W 6 11 3 6 1024.5 1024.2 0.0
23/02:30pm 19.5 16.4 3.6 35 7.7 WNW 9 13 5 7 1024.4 1024.1 0.0
23/02:00pm 19.7 17.0 3.8 35 7.7 NNE 7 9 4 5 1024.6 1024.3 0.0
23/01:30pm 19.9 17.5 4.4 36 7.6 N 6 11 3 6 1025.1 1024.8 0.0
23/01:00pm 18.7 16.9 3.3 36 7.3 NNW 2 9 1 5 1025.3 1025.0 0.0
23/12:30pm 18.0 15.7 4.9 42 6.4 SSE 6 11 3 6 1025.8 1025.6 0.0
23/12:00pm 17.9 15.3 3.4 38 6.8 NNE 6 9 3 5 1026.3 1026.0 0.0
23/11:30am 17.6 15.6 6.2 47 5.7 N 6 9 3 5 1026.9 1026.6 0.0
23/11:00am 16.2 13.9 5.8 50 5.1 E 7 13 4 7 1027.4 1027.1 0.0
23/10:30am 15.1 13.1 6.1 55 4.4 SE 6 11 3 6 1027.7 1027.5 0.0
23/10:00am 13.8 11.8 6.4 61 3.6 NE 6 9 3 5 1027.8 1027.6 0.0
23/09:30am 11.9 10.6 6.2 68 2.7 S 2 7 1 4 1027.8 1027.6 0.0
23/09:00am 9.7 8.3 5.3 74 2.0 SSE 2 7 1 4 1027.7 1027.5 0.0
23/08:30am 7.8 4.9 4.4 79 1.5 ESE 9 11 5 6 1027.6 1027.3 0.0
23/08:00am 6.1 4.8 3.9 86 0.9 CALM 0 6 0 3 1027.4 1027.1 0.0
23/07:30am 4.9 1.9 3.9 93 0.4 SE 9 13 5 7 1027.0 1026.7 0.0
23/07:00am 2.2 -0.7 1.5 95 0.3 SSE 6 7 3 4 1026.8 1026.5 0.0
23/06:30am 2.2 -0.8 0.9 91 0.5 S 6 9 3 5 1026.5 1026.2 0.0
23/06:00am 3.0 -0.8 1.8 92 0.5 SE 11 15 6 8 1026.2 1025.9 0.0
23/05:30am 2.8 -1.0 1.8 93 0.4 SE 11 11 6 6 1025.9 1025.7 0.0
23/05:00am 2.9 -0.9 1.9 93 0.4 SE 11 13 6 7 1025.7 1025.5 0.0
23/04:30am 2.7 -0.9 0.9 88 0.7 SSE 9 13 5 7 1025.7 1025.5 0.0
23/04:00am 3.5 0.5 2.0 90 0.6 SSE 7 9 4 5 1025.5 1025.3 0.0
23/03:30am 3.4 1.0 2.1 91 0.5 ESE 4 6 2 3 1025.3 1025.0 0.0
23/03:00am 3.2 -0.2 1.7 90 0.6 S 9 11 5 6 1025.4 1025.1 0.0
23/02:30am 3.8 0.5 2.2 89 0.7 S 9 11 5 6 1025.5 1025.3 0.0
23/02:00am 4.8 1.2 3.0 88 0.8 SSE 11 13 6 7 1025.6 1025.4 0.0
23/01:30am 5.1 1.9 3.0 86 0.9 SE 9 11 5 6 1025.7 1025.5 0.0
23/01:00am 5.4 2.6 3.3 86 0.9 SE 7 9 4 5 1025.7 1025.5 0.0
23/12:30am 5.1 2.3 3.1 87 0.8 SE 7 11 4 6 1025.6 1025.4 0.0
23/12:00am 5.7 2.6 3.7 87 0.9 SSE 9 9 5 5 1025.6 1025.4 0.0
 
Date/Time
EST
Temp
°C
App
Temp
°C
Dew
Point
°C
Rel
Hum
%
Delta-T
°C
Wind Press
QNH
hPa
Press
MSL
hPa
Rain since
9am
mm
Dir  Spd
km/h
Gust
km/h
Spd
kts
Gust
kts
22/11:30pm 6.5 3.4 3.8 83 1.2 SE 9 11 5 6 1025.8 1025.6 0.0
22/11:00pm 5.9 4.5 3.7 86 0.9 CALM 0 0 0 0 1025.8 1025.6 0.0
22/10:30pm 7.6 5.0 4.2 79 1.5 SE 7 13 4 7 1025.7 1025.5 0.0
22/10:00pm 7.6 4.7 4.4 80 1.4 SE 9 13 5 7 1025.6 1025.4 0.0
22/09:30pm 7.6 3.1 4.2 79 1.5 SSE 17 19 9 10 1025.6 1025.4 0.0
22/09:00pm 7.8 3.2 3.8 76 1.8 SSE 17 19 9 10 1025.6 1025.4 0.0
22/08:30pm 8.2 3.3 4.0 75 1.9 SSE 19 19 10 10 1025.6 1025.4 0.0
22/08:00pm 8.7 3.8 4.3 74 2.0 SSE 19 20 10 11 1025.4 1025.1 0.0
22/07:30pm 9.4 5.9 3.4 66 2.7 SE 11 13 6 7 1025.3 1025.0 0.0
22/07:00pm 10.8 8.1 3.8 62 3.1 E 7 9 4 5 1025.0 1024.7 0.0
22/06:30pm 11.4 8.4 3.9 60 3.4 SE 9 17 5 9 1024.8 1024.5 0.0
22/06:00pm 12.3 8.7 3.0 53 4.2 SW 11 11 6 6 1024.5 1024.2 0.0
22/05:30pm 13.2 10.1 3.6 52 4.4 SW 9 11 5 6 1024.2 1023.9 0.0
22/05:00pm 14.7 11.1 2.9 45 5.4 SW 11 15 6 8 1024.1 1023.8 0.0
22/04:30pm 17.7 13.8 3.2 38 6.9 WSW 13 20 7 11 1023.8 1023.5 0.0
22/04:00pm 19.0 15.1 3.6 36 7.4 SW 13 20 7 11 1023.5 1023.2 0.0
22/03:30pm 19.6 16.5 3.7 35 7.7 WSW 9 17 5 9 1023.2 1022.9 0.0
22/03:00pm 19.6 15.5 4.1 36 7.5 WSW 15 22 8 12 1023.2 1022.9 0.0
22/02:30pm 19.7 16.1 5.0 38 7.3 SW 13 24 7 13 1023.2 1022.9 0.0

Other formats

Comma delimited format used in spreadsheet applications
http://www.bom.gov.au/fwo/IDN60801/IDN60801.95762.axf

JavaScript Object Notation format (JSON) in row-major order
http://www.bom.gov.au/fwo/IDN60801/IDN60801.95762.json

Data quality

Most of these data are generated automatically and are frequently updated. Quality checks on data are not normally performed. It is possible for incorrect values to appear. Refer to information at About Latest Weather Observations and please check the disclaimer before using these data.